createdAt,value
2017-10-27T00:02:09.410Z,38.70
2017-10-27T00:04:37.378Z,39.50
2017-10-27T00:07:04.977Z,38.17
2017-10-27T00:09:32.683Z,37.27
2017-10-27T00:12:00.263Z,31.70
2017-10-27T00:14:27.827Z,33.83
2017-10-27T00:16:55.426Z,35.53
2017-10-27T00:19:22.965Z,33.20
2017-10-27T00:21:50.501Z,35.73
2017-10-27T00:24:18.117Z,39.03
2017-10-27T00:26:45.672Z,37.30
2017-10-27T00:29:13.322Z,39.00
2017-10-27T00:31:40.898Z,38.05
2017-10-27T00:34:08.442Z,38.17
2017-10-27T00:36:35.975Z,40.07
2017-10-27T00:39:03.659Z,39.57
2017-10-27T00:41:31.320Z,41.13
2017-10-27T00:43:59.126Z,35.93
2017-10-27T00:46:26.726Z,35.67
2017-10-27T00:48:55.123Z,33.47
2017-10-27T00:51:22.869Z,34.03
2017-10-27T00:53:50.479Z,36.63
2017-10-27T00:56:18.076Z,36.80
2017-10-27T00:58:48.448Z,41.27
2017-10-27T01:01:16.198Z,38.40
2017-10-27T01:03:46.639Z,35.00
2017-10-27T01:06:18.319Z,35.90
2017-10-27T01:08:48.706Z,36.13
2017-10-27T01:11:18.578Z,35.63
2017-10-27T01:13:54.053Z,34.67
2017-10-27T01:16:22.985Z,37.95
2017-10-27T01:18:59.538Z,36.67
2017-10-27T01:21:29.983Z,35.57
2017-10-27T01:24:00.353Z,37.33
2017-10-27T01:26:30.550Z,38.10
2017-10-27T01:28:59.699Z,38.00
2017-10-27T01:31:32.126Z,41.05
2017-10-27T01:33:59.835Z,39.13
2017-10-27T01:36:27.455Z,37.35
2017-10-27T01:38:57.687Z,36.15
2017-10-27T01:41:25.822Z,35.22
2017-10-27T01:43:53.975Z,34.17
2017-10-27T01:46:28.677Z,32.88
2017-10-27T01:48:59.075Z,33.95
2017-10-27T01:51:28.614Z,35.85
2017-10-27T01:53:59.314Z,34.73
2017-10-27T01:56:27.787Z,34.80
2017-10-27T01:58:57.894Z,36.00
2017-10-27T02:01:27.269Z,33.73
2017-10-27T02:03:56.804Z,35.53
2017-10-27T02:06:26.104Z,35.07
2017-10-27T02:08:58.296Z,34.40
2017-10-27T02:11:28.688Z,37.35
2017-10-27T02:13:56.668Z,35.95
2017-10-27T02:16:24.229Z,41.20
2017-10-27T02:18:51.850Z,38.35
2017-10-27T02:21:19.454Z,37.20
2017-10-27T02:23:47.082Z,35.83
2017-10-27T02:26:14.904Z,33.95
2017-10-27T02:28:42.442Z,34.80
2017-10-27T02:31:16.981Z,34.53
2017-10-27T02:33:46.119Z,32.85
2017-10-27T02:36:14.637Z,32.23
2017-10-27T02:38:44.109Z,32.53
2017-10-27T02:41:15.328Z,33.35
2017-10-27T02:43:45.352Z,33.28
2017-10-27T02:46:15.257Z,32.97
2017-10-27T02:48:47.369Z,31.30
2017-10-27T02:51:21.396Z,30.87
2017-10-27T02:53:52.046Z,33.03
2017-10-27T02:56:23.150Z,30.20
2017-10-27T02:58:54.420Z,29.20
2017-10-27T03:01:23.801Z,28.83
2017-10-27T03:03:53.523Z,29.30
2017-10-27T03:06:22.834Z,28.38
2017-10-27T03:08:54.927Z,30.30
2017-10-27T03:11:27.254Z,28.62
2017-10-27T03:13:55.730Z,26.87
2017-10-27T03:16:25.652Z,27.17
2017-10-27T03:18:58.329Z,26.15
2017-10-27T03:21:29.482Z,24.92
2017-10-27T03:24:00.316Z,26.73
2017-10-27T03:26:32.842Z,24.27
2017-10-27T03:29:01.642Z,23.55
2017-10-27T03:31:31.135Z,24.40
2017-10-27T03:34:01.220Z,23.00
2017-10-27T03:36:32.540Z,22.25
2017-10-27T03:39:04.151Z,24.93
2017-10-27T03:41:34.418Z,26.00
2017-10-27T03:44:06.143Z,27.15
2017-10-27T03:46:36.846Z,29.35
2017-10-27T03:49:08.848Z,26.42
2017-10-27T03:51:41.614Z,28.27
2017-10-27T03:54:12.830Z,28.52
2017-10-27T03:56:41.512Z,28.98
2017-10-27T03:59:13.621Z,27.65
2017-10-27T04:01:42.645Z,27.55
2017-10-27T04:04:11.586Z,27.27
2017-10-27T04:06:43.845Z,30.95
2017-10-27T04:09:14.323Z,26.02
2017-10-27T04:11:45.202Z,27.33
2017-10-27T04:14:14.115Z,26.45
2017-10-27T04:16:45.301Z,31.67
2017-10-27T04:19:13.117Z,28.40
2017-10-27T04:21:40.821Z,25.10
2017-10-27T04:24:08.463Z,35.37
2017-10-27T04:26:36.293Z,39.97
2017-10-27T04:29:03.943Z,38.00
2017-10-27T04:31:31.552Z,35.15
2017-10-27T04:33:59.086Z,31.23
2017-10-27T04:36:26.935Z,33.80
2017-10-27T04:38:54.533Z,33.03
2017-10-27T04:41:22.343Z,31.75
2017-10-27T04:43:49.936Z,31.33
2017-10-27T04:46:17.636Z,29.97
2017-10-27T04:48:45.422Z,29.70
2017-10-27T04:51:12.941Z,31.30
2017-10-27T04:53:40.835Z,31.58
2017-10-27T04:56:08.370Z,32.55
2017-10-27T04:58:35.966Z,38.53
2017-10-27T05:01:03.943Z,38.47
2017-10-27T05:03:32.335Z,35.42
2017-10-27T05:05:59.858Z,30.70
2017-10-27T05:08:27.583Z,28.92
2017-10-27T05:10:55.131Z,27.65
2017-10-27T05:13:22.983Z,26.62
2017-10-27T05:15:50.616Z,26.10
2017-10-27T05:18:23.718Z,24.85
2017-10-27T05:20:56.924Z,26.20
2017-10-27T05:23:29.951Z,25.00
2017-10-27T05:25:57.578Z,25.13
2017-10-27T05:28:25.163Z,26.53
2017-10-27T05:30:52.754Z,27.23
2017-10-27T05:33:20.336Z,29.43
2017-10-27T05:35:47.894Z,28.40
2017-10-27T05:38:15.479Z,30.37
2017-10-27T05:40:43.012Z,33.97
2017-10-27T05:43:10.848Z,29.03
2017-10-27T05:45:38.475Z,27.10
2017-10-27T05:48:06.231Z,27.60
2017-10-27T05:50:33.800Z,28.03
2017-10-27T05:53:01.398Z,31.30
2017-10-27T05:55:29.001Z,31.17
2017-10-27T05:57:56.878Z,32.87
2017-10-27T06:00:25.399Z,34.10
2017-10-27T06:02:53.852Z,30.53
2017-10-27T06:05:21.382Z,43.87
2017-10-27T06:07:48.965Z,39.57
2017-10-27T06:10:16.517Z,39.03
2017-10-27T06:12:44.332Z,37.13
2017-10-27T06:15:11.990Z,35.07
2017-10-27T06:17:39.763Z,35.27
2017-10-27T06:20:07.419Z,34.37
2017-10-27T06:22:35.233Z,38.97
2017-10-27T06:25:03.023Z,40.97
2017-10-27T06:27:30.581Z,42.70
2017-10-27T06:29:58.223Z,42.83
2017-10-27T06:32:25.978Z,45.40
2017-10-27T06:34:53.496Z,46.50
2017-10-27T06:37:22.430Z,48.10
2017-10-27T06:39:50.155Z,46.23
2017-10-27T06:42:17.730Z,44.30
2017-10-27T06:44:45.604Z,42.83
2017-10-27T06:47:13.245Z,44.53
2017-10-27T06:49:41.107Z,51.57
2017-10-27T06:52:08.719Z,50.20
2017-10-27T06:54:36.415Z,46.90
2017-10-27T06:57:03.964Z,48.10
2017-10-27T06:59:31.535Z,46.80
2017-10-27T07:01:59.154Z,47.30
2017-10-27T07:04:26.757Z,46.40
2017-10-27T07:06:54.374Z,45.37
2017-10-27T07:09:22.014Z,45.63
2017-10-27T07:11:49.587Z,47.30
2017-10-27T07:14:32.971Z,43.90
2017-10-27T07:17:00.560Z,40.47
2017-10-27T07:19:28.163Z,40.17
2017-10-27T07:21:55.797Z,39.60
2017-10-27T07:24:23.363Z,39.17
2017-10-27T07:26:50.951Z,39.50
2017-10-27T07:29:18.581Z,40.80
2017-10-27T07:31:46.246Z,39.97
2017-10-27T07:34:13.843Z,39.17
2017-10-27T07:36:41.471Z,38.43
2017-10-27T07:39:09.091Z,37.67
2017-10-27T07:41:36.643Z,36.13
2017-10-27T07:44:04.229Z,32.73
2017-10-27T07:46:31.918Z,32.40
2017-10-27T07:48:59.542Z,29.43
2017-10-27T07:51:27.361Z,28.53
2017-10-27T07:53:55.010Z,28.70
2017-10-27T07:56:22.574Z,29.53
2017-10-27T07:58:50.374Z,30.63
2017-10-27T08:01:17.979Z,32.60
2017-10-27T08:03:45.590Z,33.20
2017-10-27T08:06:13.484Z,32.40
2017-10-27T08:08:41.113Z,32.27
2017-10-27T08:11:08.897Z,31.90
2017-10-27T08:13:36.551Z,31.10
2017-10-27T08:16:04.227Z,30.27
2017-10-27T08:18:31.820Z,31.00
2017-10-27T08:20:59.606Z,31.30
2017-10-27T08:23:27.231Z,31.47
2017-10-27T08:25:55.010Z,30.90
2017-10-27T08:28:22.596Z,31.63
2017-10-27T08:30:50.231Z,31.27
2017-10-27T08:33:17.801Z,31.03
2017-10-27T08:35:45.449Z,29.10
2017-10-27T08:38:13.097Z,28.47
2017-10-27T08:40:40.672Z,27.03
2017-10-27T08:43:08.314Z,28.93
2017-10-27T08:45:35.913Z,29.00
2017-10-27T08:48:03.570Z,28.83
2017-10-27T08:50:31.339Z,29.50
2017-10-27T08:52:58.931Z,30.57
2017-10-27T08:55:26.649Z,29.57
2017-10-27T08:57:54.431Z,29.30
2017-10-27T09:00:22.052Z,30.97
2017-10-27T09:02:50.041Z,30.43
2017-10-27T09:08:58.503Z,26.60
2017-10-27T09:11:27.676Z,22.73
2017-10-27T09:13:55.626Z,23.07
2017-10-27T09:16:23.539Z,22.63
2017-10-27T09:18:51.443Z,24.93
2017-10-27T09:21:19.912Z,23.53
2017-10-27T09:23:48.383Z,24.17
2017-10-27T09:26:17.111Z,22.07
2017-10-27T09:28:44.921Z,24.37
2017-10-27T09:31:13.478Z,24.50
2017-10-27T09:33:41.123Z,21.00
2017-10-27T09:36:08.729Z,20.90
2017-10-27T09:38:36.701Z,21.53
2017-10-27T09:41:05.204Z,17.73
2017-10-27T09:43:33.896Z,15.87
2017-10-27T09:46:01.547Z,20.70
2017-10-27T09:48:29.551Z,21.37
2017-10-27T09:50:57.747Z,18.30
2017-10-27T09:53:26.328Z,17.63
2017-10-27T09:55:55.010Z,15.93
2017-10-27T09:58:22.617Z,16.53
2017-10-27T10:00:50.254Z,16.00
2017-10-27T10:03:18.108Z,17.87
2017-10-27T10:05:45.732Z,16.67
2017-10-27T10:08:13.395Z,18.67
2017-10-27T10:10:41.363Z,14.90
2017-10-27T10:13:09.227Z,16.43
2017-10-27T10:15:36.831Z,14.20
2017-10-27T10:18:04.642Z,15.10
2017-10-27T10:20:32.186Z,14.10
2017-10-27T10:22:59.809Z,15.57
2017-10-27T10:25:27.467Z,15.67
2017-10-27T10:27:55.796Z,16.43
2017-10-27T10:30:23.699Z,13.80
2017-10-27T10:32:51.328Z,15.47
2017-10-27T10:35:19.539Z,15.57
2017-10-27T10:37:47.252Z,16.07
2017-10-27T10:40:15.074Z,15.10
2017-10-27T10:42:42.853Z,14.60
2017-10-27T10:45:12.027Z,15.80
2017-10-27T10:47:39.859Z,15.70
2017-10-27T10:50:08.077Z,15.57
2017-10-27T10:52:35.851Z,15.50
2017-10-27T10:55:03.394Z,15.03
2017-10-27T10:57:30.980Z,15.47
2017-10-27T10:59:58.628Z,17.50
2017-10-27T11:02:26.219Z,18.37
2017-10-27T11:04:54.028Z,18.10
2017-10-27T11:07:22.542Z,19.50
2017-10-27T11:09:50.623Z,17.00
2017-10-27T11:12:19.919Z,17.40
2017-10-27T11:14:49.074Z,18.43
2017-10-27T11:17:16.779Z,19.03
2017-10-27T11:19:44.572Z,17.50
2017-10-27T11:22:13.135Z,16.60
2017-10-27T11:24:40.824Z,19.00
2017-10-27T11:27:10.443Z,18.67
2017-10-27T11:29:38.362Z,19.53
2017-10-27T11:32:06.051Z,18.30
2017-10-27T11:34:33.651Z,18.83
2017-10-27T11:37:02.499Z,18.20
2017-10-27T11:39:30.143Z,18.70
2017-10-27T11:41:57.724Z,18.60
2017-10-27T11:44:25.322Z,20.33
2017-10-27T11:46:52.998Z,16.23
2017-10-27T11:49:21.094Z,15.23
2017-10-27T11:51:48.710Z,16.03
2017-10-27T11:54:16.442Z,14.90
2017-10-27T11:56:45.134Z,14.07
2017-10-27T11:59:13.746Z,13.40
2017-10-27T12:01:41.403Z,12.30
2017-10-27T12:04:09.499Z,12.57
2017-10-27T12:06:38.715Z,12.07
2017-10-27T12:09:06.437Z,14.40
2017-10-27T12:11:34.250Z,10.90
2017-10-27T12:14:02.096Z,11.97
2017-10-27T12:16:29.787Z,12.03
2017-10-27T12:18:57.441Z,12.30
2017-10-27T12:21:25.269Z,11.57
2017-10-27T12:23:54.942Z,11.13
2017-10-27T12:26:22.706Z,11.77
2017-10-27T12:28:50.341Z,11.33
2017-10-27T12:31:18.934Z,11.60
2017-10-27T12:33:46.591Z,11.73
2017-10-27T12:36:14.425Z,10.17
2017-10-27T12:38:42.540Z,11.70
2017-10-27T12:41:10.368Z,11.07
2017-10-27T12:43:38.156Z,10.87
2017-10-27T12:46:05.775Z,11.13
2017-10-27T12:48:33.956Z,11.90
2017-10-27T12:51:02.314Z,11.07
2017-10-27T12:53:30.569Z,11.83
2017-10-27T12:55:58.312Z,10.87
2017-10-27T12:58:26.898Z,11.77
2017-10-27T13:00:55.111Z,11.00
2017-10-27T13:03:22.775Z,11.03
2017-10-27T13:05:50.531Z,9.87
2017-10-27T13:08:19.207Z,10.40
2017-10-27T13:10:48.203Z,12.43
2017-10-27T13:13:16.008Z,13.37
2017-10-27T13:15:45.371Z,12.27
2017-10-27T13:18:13.846Z,10.50
2017-10-27T13:20:41.617Z,9.83
2017-10-27T13:23:09.240Z,11.80
2017-10-27T13:25:37.191Z,11.30
2017-10-27T13:28:04.727Z,10.90
2017-10-27T13:30:33.341Z,11.53
2017-10-27T13:33:01.966Z,10.20
2017-10-27T13:35:30.923Z,10.47
2017-10-27T13:37:58.525Z,8.77
2017-10-27T13:40:26.454Z,8.93
2017-10-27T13:42:54.009Z,8.33
2017-10-27T13:45:22.436Z,7.50
2017-10-27T13:47:50.458Z,8.77
2017-10-27T13:50:18.259Z,7.90
2017-10-27T13:52:46.750Z,7.87
2017-10-27T13:55:14.524Z,8.30
2017-10-27T13:57:42.369Z,9.30
2017-10-27T14:00:11.405Z,7.90
2017-10-27T14:02:39.486Z,8.60
2017-10-27T14:05:07.296Z,7.73
2017-10-27T14:07:35.964Z,7.40
2017-10-27T14:10:03.517Z,7.63
2017-10-27T14:12:31.829Z,7.03
2017-10-27T14:14:59.405Z,7.37
2017-10-27T14:17:26.938Z,8.83
2017-10-27T14:19:54.450Z,9.33
2017-10-27T14:22:22.245Z,9.73
2017-10-27T14:24:50.102Z,6.87
2017-10-27T14:27:17.731Z,6.63
2017-10-27T14:29:45.328Z,7.70
2017-10-27T14:32:12.958Z,9.60
2017-10-27T14:34:40.718Z,9.17
2017-10-27T14:37:08.888Z,7.17
2017-10-27T14:39:37.311Z,8.77
2017-10-27T14:42:04.890Z,10.27
2017-10-27T14:44:32.407Z,12.40
2017-10-27T14:47:00.001Z,11.97
2017-10-27T14:49:27.545Z,12.80
2017-10-27T14:51:55.094Z,14.70
2017-10-27T14:54:22.675Z,20.00
2017-10-27T14:56:50.290Z,22.43
2017-10-27T14:59:17.863Z,21.00
2017-10-27T15:01:45.480Z,22.90
2017-10-27T15:04:13.136Z,15.07
2017-10-27T15:06:40.949Z,16.97
2017-10-27T15:09:08.580Z,17.73
2017-10-27T15:11:36.118Z,19.00
2017-10-27T15:14:03.721Z,19.80
2017-10-27T15:16:33.258Z,16.40
2017-10-27T15:19:00.854Z,16.27
2017-10-27T15:21:28.419Z,15.33
2017-10-27T15:23:56.545Z,13.20
2017-10-27T15:26:24.145Z,14.93
2017-10-27T15:28:51.999Z,18.60
2017-10-27T15:31:19.600Z,24.07
2017-10-27T15:33:47.374Z,23.80
2017-10-27T15:36:15.003Z,27.47
2017-10-27T15:38:42.571Z,17.97
2017-10-27T15:41:10.475Z,15.67
2017-10-27T15:43:38.026Z,11.10
2017-10-27T15:46:05.927Z,14.50
2017-10-27T15:48:33.489Z,22.60
2017-10-27T15:51:01.247Z,17.33
2017-10-27T15:53:28.889Z,9.57
2017-10-27T15:55:56.430Z,9.60
2017-10-27T15:58:23.970Z,25.60
2017-10-27T16:00:51.544Z,28.30
2017-10-27T16:03:19.070Z,16.73
2017-10-27T16:05:46.594Z,14.93
2017-10-27T16:08:14.171Z,17.20
2017-10-27T16:10:41.702Z,19.73
2017-10-27T16:13:09.401Z,17.83
2017-10-27T16:15:36.989Z,14.70
2017-10-27T16:18:04.564Z,16.63
2017-10-27T16:20:32.142Z,17.13
2017-10-27T16:23:00.341Z,15.10
2017-10-27T16:25:27.968Z,17.10
2017-10-27T16:27:56.452Z,20.17
2017-10-27T16:30:24.034Z,14.37
2017-10-27T16:32:51.578Z,17.63
2017-10-27T16:35:19.688Z,14.90
2017-10-27T16:37:47.390Z,21.53
2017-10-27T16:40:15.222Z,21.70
2017-10-27T16:42:49.867Z,18.20
2017-10-27T16:45:17.627Z,20.10
2017-10-27T16:47:45.376Z,16.93
2017-10-27T16:50:13.038Z,21.27
2017-10-27T16:52:40.775Z,22.40
2017-10-27T16:55:08.329Z,25.30
2017-10-27T16:57:36.008Z,27.80
2017-10-27T17:00:07.055Z,26.30
2017-10-27T17:02:34.667Z,60.13
2017-10-27T17:05:02.271Z,38.63
2017-10-27T17:07:29.847Z,37.00
2017-10-27T17:09:57.651Z,35.87
2017-10-27T17:12:25.214Z,39.90
2017-10-27T17:14:52.858Z,36.27
2017-10-27T17:17:20.386Z,34.57
2017-10-27T17:19:47.997Z,31.40
2017-10-27T17:22:15.577Z,32.43
2017-10-27T17:24:43.420Z,36.10
2017-10-27T17:27:10.996Z,36.53
2017-10-27T17:29:38.598Z,35.30
2017-10-27T17:32:06.178Z,34.83
2017-10-27T17:34:33.760Z,32.53
2017-10-27T17:37:01.341Z,30.20
2017-10-27T17:39:29.020Z,32.23
2017-10-27T17:41:56.609Z,29.70
2017-10-27T17:44:24.223Z,34.97
2017-10-27T17:46:51.818Z,30.13
2017-10-27T17:49:19.379Z,28.80
2017-10-27T17:51:46.922Z,25.37
2017-10-27T17:54:14.518Z,32.97
2017-10-27T17:56:42.137Z,34.33
2017-10-27T17:59:09.759Z,36.30
2017-10-27T18:01:37.396Z,39.93
2017-10-27T18:04:04.963Z,39.10
2017-10-27T18:06:32.495Z,42.60
2017-10-27T18:09:00.992Z,39.67
2017-10-27T18:11:28.528Z,37.50
2017-10-27T18:13:56.106Z,38.97
2017-10-27T18:16:23.808Z,50.70
2017-10-27T18:18:51.493Z,48.80
2017-10-27T18:21:19.278Z,44.87
2017-10-27T18:23:46.852Z,49.33
2017-10-27T18:26:14.422Z,50.70
2017-10-27T18:28:41.997Z,52.60
2017-10-27T18:31:09.610Z,49.83
2017-10-27T18:33:37.138Z,46.27
2017-10-27T18:36:04.725Z,47.20
2017-10-27T18:38:32.346Z,45.37
2017-10-27T18:40:59.953Z,47.53
2017-10-27T18:43:27.550Z,42.97
2017-10-27T18:45:55.143Z,47.17
2017-10-27T18:48:22.772Z,43.90
2017-10-27T18:50:50.355Z,44.77
2017-10-27T18:53:18.021Z,33.33
2017-10-27T18:55:45.597Z,32.73
2017-10-27T18:58:13.110Z,33.77
2017-10-27T19:00:40.746Z,39.07
2017-10-27T19:03:08.354Z,38.37
2017-10-27T19:05:35.978Z,27.33
2017-10-27T19:08:03.578Z,34.97
2017-10-27T19:10:31.090Z,28.77
2017-10-27T19:12:58.601Z,29.80
2017-10-27T19:15:26.181Z,29.90
2017-10-27T19:17:53.714Z,34.57
2017-10-27T19:20:21.287Z,34.77
2017-10-27T19:22:52.199Z,34.90
2017-10-27T19:25:20.069Z,35.03
2017-10-27T19:27:47.602Z,33.63
2017-10-27T19:30:15.385Z,34.27
2017-10-27T19:32:42.904Z,30.90
2017-10-27T19:35:10.472Z,35.07
2017-10-27T19:37:38.077Z,32.87
2017-10-27T19:40:05.850Z,32.87
2017-10-27T19:42:33.382Z,34.77
2017-10-27T19:45:00.957Z,33.80
2017-10-27T19:47:28.736Z,29.60
2017-10-27T19:49:56.302Z,28.67
2017-10-27T19:52:24.573Z,29.67
2017-10-27T19:54:52.165Z,25.97
2017-10-27T19:57:20.034Z,29.50
2017-10-27T19:59:47.691Z,32.93
2017-10-27T20:02:15.318Z,29.57
2017-10-27T20:04:42.876Z,30.50
2017-10-27T20:07:10.477Z,31.57
2017-10-27T20:09:38.137Z,29.93
2017-10-27T20:12:06.178Z,30.30
2017-10-27T20:14:33.745Z,30.40
2017-10-27T20:17:01.323Z,29.87
2017-10-27T20:19:28.879Z,29.73
2017-10-27T20:21:56.493Z,29.70
2017-10-27T20:24:24.205Z,26.90
2017-10-27T20:26:51.808Z,27.93
2017-10-27T20:29:19.343Z,28.87
2017-10-27T20:31:46.955Z,28.30
2017-10-27T20:34:14.495Z,28.57
2017-10-27T20:36:42.075Z,27.40
2017-10-27T20:39:09.657Z,26.60
2017-10-27T20:41:37.298Z,27.70
2017-10-27T20:44:04.935Z,26.80
2017-10-27T20:46:32.537Z,25.53
2017-10-27T20:49:00.080Z,24.13
2017-10-27T20:51:27.625Z,25.37
2017-10-27T20:53:55.214Z,23.97
2017-10-27T20:56:23.651Z,25.73
2017-10-27T20:58:51.185Z,26.57
2017-10-27T21:01:18.821Z,27.50
2017-10-27T21:03:46.406Z,27.57
2017-10-27T21:06:14.233Z,25.97
2017-10-27T21:08:41.865Z,28.00
2017-10-27T21:11:09.446Z,26.27
2017-10-27T21:13:37.326Z,27.77
2017-10-27T21:16:04.980Z,27.97
2017-10-27T21:18:32.955Z,30.53
2017-10-27T21:21:00.493Z,28.77
2017-10-27T21:23:28.055Z,31.17
2017-10-27T21:25:56.451Z,31.17
2017-10-27T21:28:24.034Z,31.73
2017-10-27T21:30:51.633Z,28.07
2017-10-27T21:33:19.178Z,30.17
2017-10-27T21:35:46.740Z,31.37
2017-10-27T21:38:14.314Z,38.17
2017-10-27T21:40:41.848Z,39.50
2017-10-27T21:43:09.400Z,34.00
2017-10-27T21:45:37.194Z,22.33
2017-10-27T21:48:04.755Z,18.87
2017-10-27T21:50:32.314Z,16.37
2017-10-27T21:52:59.934Z,17.53
2017-10-27T21:55:27.478Z,15.03
2017-10-27T21:57:55.036Z,12.90
2017-10-27T22:00:22.730Z,9.47
2017-10-27T22:02:50.253Z,8.63
2017-10-27T22:05:17.844Z,9.77
2017-10-27T22:07:45.452Z,8.97
2017-10-27T22:10:12.986Z,8.50
2017-10-27T22:12:40.527Z,9.53
2017-10-27T22:15:08.112Z,10.60
2017-10-27T22:17:35.621Z,9.97
2017-10-27T22:20:03.147Z,10.87
2017-10-27T22:22:30.734Z,9.67
2017-10-27T22:24:58.277Z,9.60
2017-10-27T22:27:25.798Z,10.27
2017-10-27T22:29:53.408Z,10.30
2017-10-27T22:32:21.041Z,11.80
2017-10-27T22:34:48.830Z,13.80
2017-10-27T22:37:16.387Z,12.60
2017-10-27T22:39:43.962Z,13.47
2017-10-27T22:42:11.788Z,13.73
2017-10-27T22:44:39.315Z,13.87
2017-10-27T22:47:06.887Z,15.33
2017-10-27T22:49:34.412Z,16.93
2017-10-27T22:52:03.471Z,17.70
2017-10-27T22:54:31.161Z,14.27
2017-10-27T22:56:58.726Z,10.27
2017-10-27T22:59:27.054Z,7.60
2017-10-27T23:01:54.764Z,5.60
2017-10-27T23:04:22.286Z,4.27
2017-10-27T23:06:49.814Z,4.07
2017-10-27T23:09:17.438Z,3.97
2017-10-27T23:11:45.189Z,3.23
2017-10-27T23:14:12.787Z,2.53
2017-10-27T23:16:41.254Z,2.63
2017-10-27T23:19:08.992Z,2.90
2017-10-27T23:21:36.736Z,1.80
2017-10-27T23:24:04.353Z,1.73
2017-10-27T23:26:31.868Z,1.57
2017-10-27T23:28:59.704Z,1.30
2017-10-27T23:31:27.317Z,1.70
2017-10-27T23:33:54.901Z,1.60
2017-10-27T23:36:22.442Z,1.50
2017-10-27T23:38:50.115Z,1.50
2017-10-27T23:41:17.740Z,1.50
2017-10-27T23:43:45.318Z,1.43
2017-10-27T23:46:12.909Z,1.30
2017-10-27T23:48:40.472Z,1.40
2017-10-27T23:51:08.661Z,1.27
2017-10-27T23:53:36.281Z,1.30
2017-10-27T23:56:04.125Z,1.20
2017-10-27T23:58:31.690Z,1.20
